createdAt,value
2023-02-11T00:01:13.335Z,981.69
2023-02-11T00:06:15.228Z,981.72
2023-02-11T00:11:16.988Z,981.73
2023-02-11T00:16:18.206Z,981.65
2023-02-11T00:21:20.193Z,981.59
2023-02-11T00:26:22.240Z,981.68
2023-02-11T00:31:23.557Z,981.64
2023-02-11T00:36:25.178Z,981.58
2023-02-11T00:41:26.620Z,981.49
2023-02-11T00:46:28.149Z,981.5
2023-02-11T00:51:30.042Z,981.46
2023-02-11T00:56:31.644Z,981.48
2023-02-11T01:01:32.886Z,981.43
2023-02-11T01:06:34.254Z,981.43
2023-02-11T01:11:35.761Z,981.45
2023-02-11T01:16:37.912Z,981.42
2023-02-11T01:21:39.265Z,981.36
2023-02-11T01:26:40.994Z,981.4
2023-02-11T01:31:42.997Z,981.45
2023-02-11T01:36:44.382Z,981.51
2023-02-11T01:41:46.362Z,981.44
2023-02-11T01:46:47.750Z,981.36
2023-02-11T01:51:49.365Z,981.35
2023-02-11T01:56:51.099Z,981.29
2023-02-11T02:01:53.239Z,981.31
2023-02-11T02:06:54.988Z,981.3
2023-02-11T02:11:56.127Z,981.26
2023-02-11T02:16:57.765Z,981.17
2023-02-11T02:21:58.861Z,980.97
2023-02-11T02:27:00.393Z,980.86
2023-02-11T02:32:02.253Z,980.84
2023-02-11T02:37:04.082Z,980.81
2023-02-11T02:42:05.993Z,980.74
2023-02-11T02:47:07.800Z,980.59
2023-02-11T02:52:09.395Z,980.55
2023-02-11T02:57:10.814Z,980.52
2023-02-11T03:02:12.455Z,980.39
2023-02-11T03:07:13.893Z,980.28
2023-02-11T03:12:15.117Z,980.29
2023-02-11T03:17:17.396Z,980.3
2023-02-11T03:22:18.908Z,980.41
2023-02-11T03:27:20.539Z,980.37
2023-02-11T03:32:22.633Z,980.34
2023-02-11T03:37:23.795Z,980.36
2023-02-11T03:42:25.078Z,980.41
2023-02-11T03:47:26.375Z,980.29
2023-02-11T03:52:28.168Z,980.41
2023-02-11T03:57:29.631Z,980.42
2023-02-11T04:02:31.027Z,980.53
2023-02-11T04:07:32.448Z,980.62
2023-02-11T04:12:33.950Z,980.66
2023-02-11T04:17:35.484Z,980.63
2023-02-11T04:22:36.651Z,980.57
2023-02-11T04:27:38.117Z,980.71
2023-02-11T04:32:40.397Z,980.85
2023-02-11T04:37:42.059Z,980.92
2023-02-11T04:42:43.401Z,980.94
2023-02-11T04:47:45.011Z,981.03
2023-02-11T04:52:46.651Z,981.02
2023-02-11T04:57:48.608Z,980.89
2023-02-11T05:02:50.139Z,980.82
2023-02-11T05:07:51.885Z,980.76
2023-02-11T05:12:55.670Z,980.72
2023-02-11T05:17:54.979Z,980.69
2023-02-11T05:22:56.476Z,980.57
2023-02-11T05:27:58.489Z,980.49
2023-02-11T05:33:00.613Z,980.33
2023-02-11T05:38:02.535Z,980.45
2023-02-11T05:43:04.362Z,980.39
2023-02-11T05:48:06.065Z,980.45
2023-02-11T05:53:07.645Z,980.41
2023-02-11T05:58:09.349Z,980.28
2023-02-11T06:03:11.624Z,980.36
2023-02-11T06:08:13.312Z,980.45
2023-02-11T06:13:14.962Z,980.54
2023-02-11T06:18:16.294Z,980.6
2023-02-11T06:23:17.730Z,980.59
2023-02-11T06:28:18.854Z,980.48
2023-02-11T06:33:20.063Z,980.35
2023-02-11T06:38:21.640Z,980.34
2023-02-11T06:43:22.969Z,980.28
2023-02-11T06:48:25.131Z,980.41
2023-02-11T06:53:26.456Z,980.53
2023-02-11T06:58:27.907Z,980.63
2023-02-11T07:03:29.135Z,980.53
2023-02-11T07:08:30.603Z,980.57
2023-02-11T07:13:32.650Z,980.41
2023-02-11T07:18:34.381Z,980.3
2023-02-11T07:23:35.952Z,980.38
2023-02-11T07:28:37.841Z,980.54
2023-02-11T07:33:39.255Z,980.28
2023-02-11T07:38:40.930Z,980.26
2023-02-11T07:43:42.462Z,980.26
2023-02-11T07:48:44.522Z,980.14
2023-02-11T07:53:46.305Z,980.29
2023-02-11T07:58:47.744Z,980.45
2023-02-11T08:03:49.438Z,980.39
2023-02-11T08:08:51.463Z,980.14
2023-02-11T08:13:53.061Z,980.3
2023-02-11T08:18:55.174Z,980.2
2023-02-11T08:23:56.300Z,980.29
2023-02-11T08:28:58.489Z,980.41
2023-02-11T08:33:59.683Z,980.27
2023-02-11T08:39:16.344Z,980.27
2023-02-11T08:44:02.568Z,980.31
2023-02-11T08:49:04.040Z,980.28
2023-02-11T08:54:05.876Z,980.04
2023-02-11T08:59:07.850Z,980.05
2023-02-11T09:04:09.758Z,980.15
2023-02-11T09:09:11.613Z,980.1
2023-02-11T09:14:13.590Z,979.97
2023-02-11T09:19:15.184Z,980.05
2023-02-11T09:24:16.769Z,979.96
2023-02-11T09:29:18.254Z,979.98
2023-02-11T09:34:20.195Z,980.07
2023-02-11T09:39:22.054Z,980.16
2023-02-11T09:44:23.599Z,979.92
2023-02-11T09:49:25.639Z,979.8
2023-02-11T09:54:26.964Z,979.82
2023-02-11T09:59:28.680Z,979.89
2023-02-11T10:04:30.865Z,979.79
2023-02-11T10:09:32.811Z,979.96
2023-02-11T10:14:34.671Z,980.01
2023-02-11T10:19:35.963Z,979.94
2023-02-11T10:24:37.536Z,979.92
2023-02-11T10:29:39.622Z,979.87
2023-02-11T10:34:47.196Z,979.84
2023-02-11T10:39:48.972Z,979.83
2023-02-11T10:44:50.516Z,979.66
2023-02-11T10:49:52.032Z,979.59
2023-02-11T10:54:53.612Z,979.61
2023-02-11T10:59:55.557Z,979.57
2023-02-11T11:04:57.455Z,979.5
2023-02-11T11:09:59.249Z,979.41
2023-02-11T11:15:00.437Z,979.5
2023-02-11T11:20:01.752Z,979.4
2023-02-11T11:25:03.055Z,979.35
2023-02-11T11:35:06.898Z,979.25
2023-02-11T12:15:19.664Z,979.27
2023-02-11T12:25:23.276Z,979.1
2023-02-11T12:30:24.924Z,979.07
2023-02-11T12:35:26.801Z,978.99
2023-02-11T12:40:28.727Z,979.01
2023-02-11T12:45:30.190Z,978.94
2023-02-11T13:00:35.566Z,978.81
2023-02-11T13:05:37.177Z,978.79
2023-02-11T13:10:39.084Z,978.75
2023-02-11T13:15:41.379Z,978.51
2023-02-11T13:20:42.832Z,978.51
2023-02-11T13:25:44.766Z,978.47
2023-02-11T13:30:46.222Z,978.43
2023-02-11T13:35:47.629Z,978.5
2023-02-11T13:40:49.608Z,978.38
2023-02-11T13:45:50.737Z,978.44
2023-02-11T13:50:53.953Z,978.52
2023-02-11T13:55:53.948Z,978.53
2023-02-11T14:00:56.200Z,978.56
2023-02-11T14:05:58.181Z,978.52
2023-02-11T14:10:59.602Z,978.41
2023-02-11T14:16:01.269Z,978.54
2023-02-11T14:21:03.569Z,978.46
2023-02-11T14:26:03.937Z,978.47
2023-02-11T14:31:05.704Z,978.59
2023-02-11T14:36:06.995Z,978.55
2023-02-11T14:41:08.335Z,978.57
2023-02-11T14:46:10.444Z,978.62
2023-02-11T14:51:11.841Z,978.57
2023-02-11T14:56:13.443Z,978.59
2023-02-11T15:01:15.343Z,978.6
2023-02-11T15:06:17.479Z,978.61
2023-02-11T15:11:19.537Z,978.67
2023-02-11T15:16:21.221Z,978.61
2023-02-11T15:21:23.280Z,978.56
2023-02-11T15:26:24.511Z,978.63
2023-02-11T15:31:26.570Z,978.71
2023-02-11T15:36:28.868Z,978.74
2023-02-11T15:41:30.799Z,978.76
2023-02-11T15:46:32.330Z,978.71
2023-02-11T15:51:34.012Z,978.76
2023-02-11T15:56:35.775Z,978.85
2023-02-11T16:01:38.005Z,978.86
2023-02-11T16:06:39.329Z,978.87
2023-02-11T16:11:41.478Z,978.92
2023-02-11T16:16:43.203Z,978.98
2023-02-11T16:21:44.926Z,979.1
2023-02-11T16:26:46.813Z,979.18
2023-02-11T16:31:48.858Z,979.22
2023-02-11T16:36:50.399Z,979.26
2023-02-11T16:41:51.818Z,979.29
2023-02-11T16:46:53.387Z,979.48
2023-02-11T16:51:54.897Z,979.46
2023-02-11T16:56:56.068Z,979.47
2023-02-11T17:01:57.467Z,979.54
2023-02-11T17:06:59.310Z,979.65
2023-02-11T17:12:00.964Z,979.82
2023-02-11T17:17:02.455Z,979.83
2023-02-11T17:22:03.911Z,979.86
2023-02-11T17:27:05.076Z,979.94
2023-02-11T17:32:07.388Z,979.99
2023-02-11T17:37:08.938Z,979.94
2023-02-11T17:42:10.369Z,979.88
2023-02-11T17:47:12.033Z,979.93
2023-02-11T17:52:14.181Z,980.08
2023-02-11T17:57:16.232Z,980.2
2023-02-11T18:02:17.871Z,980.18
2023-02-11T18:07:19.688Z,980.16
2023-02-11T18:12:21.349Z,980.2
2023-02-11T18:17:22.577Z,980.13
2023-02-11T18:22:23.942Z,980.12
2023-02-11T18:27:26.104Z,980.09
2023-02-11T18:32:27.864Z,980.11
2023-02-11T18:37:29.914Z,980.16
2023-02-11T18:42:31.627Z,980.16
2023-02-11T18:47:33.731Z,980.18
2023-02-11T18:52:34.922Z,980.17
2023-02-11T18:57:36.809Z,980.23
2023-02-11T19:02:38.078Z,980.29
2023-02-11T19:07:39.631Z,980.18
2023-02-11T19:12:41.474Z,980.17
2023-02-11T19:17:42.917Z,980.16
2023-02-11T19:22:44.852Z,980.22
2023-02-11T19:27:46.569Z,980.26
2023-02-11T19:32:48.192Z,980.3
2023-02-11T19:37:49.901Z,980.28
2023-02-11T19:42:51.980Z,980.23
2023-02-11T19:47:53.478Z,980.13
2023-02-11T19:52:55.279Z,980.17
2023-02-11T19:57:56.869Z,980.24
2023-02-11T20:02:58.207Z,980.13
2023-02-11T20:08:00.167Z,980.15
2023-02-11T20:13:02.260Z,980.2
2023-02-11T20:18:04.436Z,980.33
2023-02-11T20:23:06.038Z,980.33
2023-02-11T20:28:07.339Z,980.45
2023-02-11T20:33:09.433Z,980.51
2023-02-11T20:38:11.400Z,980.59
2023-02-11T20:43:13.245Z,980.57
2023-02-11T20:48:14.764Z,980.52
2023-02-11T20:53:16.316Z,980.59
2023-02-11T20:58:18.350Z,980.59
2023-02-11T21:03:19.972Z,980.51
2023-02-11T21:08:21.634Z,980.66
2023-02-11T21:13:22.914Z,980.72
2023-02-11T21:18:24.628Z,980.69
2023-02-11T21:23:25.967Z,980.62
2023-02-11T21:28:27.330Z,980.67
2023-02-11T21:33:29.097Z,980.59
2023-02-11T21:38:30.557Z,980.6
2023-02-11T21:43:32.317Z,980.6
2023-02-11T21:48:33.708Z,980.56
2023-02-11T21:53:35.668Z,980.6
2023-02-11T21:58:36.858Z,980.65
2023-02-11T22:03:38.880Z,980.55
2023-02-11T22:08:40.716Z,980.57
2023-02-11T22:13:42.319Z,980.59
2023-02-11T22:18:43.717Z,980.61
2023-02-11T22:23:45.215Z,980.63
2023-02-11T22:28:46.383Z,980.69
2023-02-11T22:33:47.753Z,980.75
2023-02-11T22:38:49.314Z,980.77
2023-02-11T22:43:51.212Z,980.81
2023-02-11T22:48:52.396Z,980.73
2023-02-11T22:53:53.977Z,980.87
2023-02-11T22:58:55.397Z,980.94
2023-02-11T23:13:59.966Z,981.07
2023-02-11T23:19:01.481Z,980.98
2023-02-11T23:24:03.243Z,981.03
2023-02-11T23:29:05.142Z,981.02
2023-02-11T23:34:07.055Z,981.11
2023-02-11T23:39:08.493Z,981.11
2023-02-11T23:44:10.053Z,981.24
2023-02-11T23:49:11.632Z,981.32
2023-02-11T23:54:13.063Z,981.24
2023-02-11T23:59:14.580Z,981.09
